Terminal Aerodrome Forecast
Issued by NWS Louisville, KY

Home | Current Version | Previous Version | Text Only | Print | Product List | Glossary On
Versions: 1 2 3 4 5 6 7 8 9 10 11 12 13 14 15 16 17 18
000
FTUS43 KLMK 261148
TAFBWG
TAF
KBWG 261148Z 2612/2712 19008KT P6SM VCSH SCT015 BKN040
      TEMPO 2612/2615 BKN015
     FM261700 21012G19KT P6SM BKN035
     FM262300 21006KT P6SM BKN080
     FM270300 VRB03KT P6SM SCT250=

USA.gov is the U.S. government's official web portal to all federal, state and local government web resources and services.